Pagrindinis puslapis
METAR-TAF:

METAR-TAF

Oro uostai :

Veikas, Teksasas, Jungtinės Amerikos Valstijos

platuma: 31-38-16N, ilguma: 097-04-27W, Aukštis: 143 m

Dabartinis oras

Ataskaita buvo paskelbta 8 valandos ir 34 minutes, ne 02:55 UTC
Vėjas 3 kt iš Šiaurės Rytų
Temperatūra 23°C
Drėgmė 83%
Slėgis 1016 hPa
Matomumas: 16.1 km
Giedras dangus

METAR: KCNW 290255Z 04003KT 10SM SKC 23/20 A2999

Laikas: 05:29 (11:29 UTC)


TAF: trūkstamas

Orai ataskaitas ir orų prognozės (METAR, TAF).

turimą stotys yra geltonos ir raudonos taškus žemėlapyje.

Perkelti pele per norėdami pamatyti stoties vardą.

Tada spustelėkite, norėdami matyti oro stebėjimo ir prognozės.

Norėdami pakeisti žemėlapį: spustelėkite ant žalios mygtukų su juodo kryžiaus žemyn,; žalią mygtuką su brūkšneliu, jei norite nutolinti; arba žalių rodyklių gretimoms žemėlapius.


METAR-TAF: